Πλησιέστερες Αναφορές METAR

 

LGTS - Thessaloniki/Makedonia-Elev 7m
Distance from station: Ν 13km
Ενημερώθηκε: 17/04/2021 01:20
Σχεδόν νεφελώδης
Σχεδόν νεφελώδης
 Ανεμος από ΔΒΔ
Ανεμος: ΔΒΔ 11 km/h
Θερμοκρασία: 11°C
Σημείο Δρόσου: 9°C
Υγρασία: 88%
Βαρόμετρο: 1018 hPa
Clouds: Σχεδόν νεφελώδης
Visibility: 10 km
Cloud details: Σχεδόν νεφελώδης 762 m
2021/04/16 22:20 LGTS 162220Z 30006KT 9999 BKN025 11/09 Q1018 NOSIG
LGAV - Athens/Elef. Venizelos-Elev 94m
Distance from station: ΝΝΑ 312km
Ενημερώθηκε: 17/04/2021 01:50
Μερικώς νεφελώδης
Μερικώς νεφελώδης
 Ανεμος από Β
Ανεμος: Β 20 km/h
Θερμοκρασία: 13°C
Σημείο Δρόσου: 8°C
Υγρασία: 72%
Βαρόμετρο: 1015 hPa
Clouds: Μερικώς νεφελώδης
Visibility: 10 km
Cloud details: Μερικώς νεφελώδης 914 m
2021/04/16 22:50 LGAV 162250Z 01011KT 9999 SCT030 13/08 Q1015 NOSIG
 
LGAL - Alexandroupolis-Elev 3m
Distance from station: Α 251km
Ενημερώθηκε: 16/04/2021 21:20
Μη Ενημερωμένο!
Few Clouds
Few Clouds
 Ανεμος από ΑΒΑ
Ανεμος: ΑΒΑ 9 km/h
Θερμοκρασία: 13°C
Σημείο Δρόσου: 8°C
Υγρασία: 72%
Βαρόμετρο: 1017 hPa
Clouds: Few Clouds
Visibility: 10 km
Cloud details: Few Clouds 762 m
2021/04/16 18:20 LGAL 161820Z 07005KT 9999 FEW025 13/08 Q1017
LGKV - Kavala/Crysoupolis-Elev 5m
Distance from station: ΑΒΑ 144km
Ενημερώθηκε: 16/04/2021 21:50
Μη Ενημερωμένο!
Σχεδόν νεφελώδης
Σχεδόν νεφελώδης
 Ανεμος από calm
Ανεμος: Απνοια
Θερμοκρασία: 12°C
Σημείο Δρόσου: 8°C
Υγρασία: 77%
Βαρόμετρο: 1018 hPa
Clouds: Σχεδόν νεφελώδης
Visibility: 10 km
Cloud details: Few Clouds 914 m
Σχεδόν νεφελώδης 2134 m
2021/04/16 18:50 LGKV 161850Z 00000KT 9999 FEW030 BKN070 12/08 Q1018
 
LGSK - Skiathos Island-Elev 15m
Distance from station: ΝΝΑ 168km
Ενημερώθηκε: 15/04/2021 17:50
Μη Ενημερωμένο!
Αίθριος
Αίθριος
 Ανεμος από Β
Ανεμος: Β 11 km/h
Θερμοκρασία: 15°C
Σημείο Δρόσου: 5°C
Υγρασία: 51%
Βαρόμετρο: 1015 hPa
Συνθήκες: Αίθριος
Visibility: greater than 10 km
2021/04/15 14:50 LGSK 151450Z 35006KT CAVOK 15/05 Q1015
LGLM - Limnos Island-Elev 5m
Distance from station: ΑΝΑ 210km
Ενημερώθηκε: 17/04/2021 00:50
Few Clouds
Few Clouds
 Ανεμος από calm
Ανεμος: Απνοια
Θερμοκρασία: 12°C
Σημείο Δρόσου: 11°C
Υγρασία: 94%
Βαρόμετρο: 1016 hPa
Clouds: Few Clouds
Visibility: 10 km
Cloud details: Few Clouds 549 m
2021/04/16 21:50 LGLM 162150Z 00000KT 9999 FEW018 12/11 Q1016
 
LGMT - Mitilini Island-Elev 17m
Distance from station: ΑΝΑ 358km
Ενημερώθηκε: 17/04/2021 00:50
Αίθριος
Αίθριος
 Ανεμος από varies
Ανεμος: varies 4 km/h
Θερμοκρασία: 14°C
Σημείο Δρόσου: 11°C
Υγρασία: 82%
Βαρόμετρο: 1016 hPa
Συνθήκες: Αίθριος
Visibility: greater than 10 km
2021/04/16 21:50 LGMT 162150Z VRB02KT CAVOK 14/11 Q1016
LGSY - Skiros Island-Elev 15m
Distance from station: ΝΑ 227km
Ενημερώθηκε: 16/04/2021 23:50
Μη Ενημερωμένο!
Few Clouds
Few Clouds
 Ανεμος από ΒΒΑ
Ανεμος: ΒΒΑ 9 km/h
Θερμοκρασία: 14°C
Σημείο Δρόσου: 11°C
Υγρασία: 82%
Βαρόμετρο: 1016 hPa
Clouds: Few Clouds
Visibility: 10 km
Cloud details: Few Clouds 762 m
2021/04/16 20:50 LGSY 162050Z 03005KT 9999 FEW025 14/11 Q1016 RMK BKN080 BKN180 BLU
 
LGKZ - Kozani-Elev 628m
Distance from station: ΔΝΔ 102km
Ενημερώθηκε: 17/04/2021 01:20

 Ανεμος από Β
Ανεμος: Β 7 km/h
Θερμοκρασία: 5°C
Wind Chill: 3°C
Σημείο Δρόσου: 3°C
Υγρασία: 87%
Βαρόμετρο: 1017 hPa
2021/04/16 22:20 LGKZ 162220Z AUTO 35004KT 290V040 //// // ////// 05/03 Q1017 RE//
LGIO - Ioannina-Elev 476m
Distance from station: ΔΝΔ 209km
Ενημερώθηκε: 17/04/2021 01:20

 Ανεμος από varies
Ανεμος: varies 4 km/h
Θερμοκρασία: 8°C
Σημείο Δρόσου: 5°C
Υγρασία: 82%
Βαρόμετρο: 1012 hPa
2021/04/16 22:20 LGIO 162220Z AUTO VRB02KT //// // ////// 08/05 Q1012 RE//
 
LGZA - Zakinthos-Elev 3m
Distance from station: ΝΝΔ 367km
Ενημερώθηκε: 16/04/2021 20:50
Μη Ενημερωμένο!
Few Clouds
Few Clouds
 Ανεμος από ΒΔ
Ανεμος: ΒΔ 9 km/h
Θερμοκρασία: 15°C
Σημείο Δρόσου: 10°C
Υγρασία: 72%
Βαρόμετρο: 1009 hPa
Clouds: Few Clouds
Visibility: 10 km
Cloud details: Few Clouds 610 m
2021/04/16 17:50 LGZA 161750Z 32005KT 9999 FEW020 15/10 Q1009
LGKR - Corfu Island-Elev 2m
Distance from station: ΔΝΔ 282km
Ενημερώθηκε: 16/04/2021 23:50
Μη Ενημερωμένο!
Αίθριος
Αίθριος
 Ανεμος από calm
Ανεμος: Απνοια
Θερμοκρασία: 16°C
Σημείο Δρόσου: 5°C
Υγρασία: 48%
Βαρόμετρο: 1010 hPa
Συνθήκες: Αίθριος
Visibility: greater than 10 km
2021/04/16 20:50 LGKR 162050Z 00000KT CAVOK 16/05 Q1010 NOSIG
 
LGSO - Syros Island-Elev 72m
Distance from station: ΝΝΑ 397km
Ενημερώθηκε: 16/04/2021 14:50
Μη Ενημερωμένο!
Few Clouds
Few Clouds
 Ανεμος από ΒΑ
Ανεμος: ΒΑ 13 km/h
Θερμοκρασία: 18°C
Σημείο Δρόσου: 11°C
Υγρασία: 64%
Βαρόμετρο: 1016 hPa
Clouds: Few Clouds
Visibility: 10 km
Cloud details: Few Clouds 488 m
2021/04/16 11:50 LGSO 161150Z 05007KT 9999 FEW016 18/11 Q1016
LGMK - Mikonos Island-Elev 123m
Distance from station: ΝΝΑ 412km
Ενημερώθηκε: 16/04/2021 21:20
Μη Ενημερωμένο!
Σχεδόν νεφελώδης
Σχεδόν νεφελώδης
 Ανεμος από ΒΒΑ
Ανεμος: ΒΒΑ 19 km/h
Θερμοκρασία: 15°C
Σημείο Δρόσου: 10°C
Υγρασία: 72%
Βαρόμετρο: 1014 hPa
Clouds: Σχεδόν νεφελώδης
Visibility: 10 km
Cloud details: Few Clouds 244 m
Σχεδόν νεφελώδης 762 m
2021/04/16 18:20 LGMK 161820Z 02010KT 9999 FEW008 BKN025 15/10 Q1014
 
LGSR - Santorini Island-Elev 40m
Distance from station: ΝΝΑ 520km
Ενημερώθηκε: 17/04/2021 00:20
Μη Ενημερωμένο!
Μερικώς νεφελώδης
Μερικώς νεφελώδης
 Ανεμος από ΒΒΑ
Ανεμος: ΒΒΑ 15 km/h
Θερμοκρασία: 17°C
Σημείο Δρόσου: 14°C
Υγρασία: 83%
Βαρόμετρο: 1015 hPa
Clouds: Μερικώς νεφελώδης
Visibility: 10 km
Cloud details: Μερικώς νεφελώδης 427 m
Μερικώς νεφελώδης 610 m
2021/04/16 21:20 LGSR 162120Z 02008KT 9999 SCT014 SCT020 17/14 Q1015
LGKL - Kalamata-Elev 8m
Distance from station: Ν 405km
Ενημερώθηκε: 17/04/2021 01:20

 Ανεμος από ΒΒΔ
Ανεμος: ΒΒΔ 11 km/h
Θερμοκρασία: 16°C
Σημείο Δρόσου: 8°C
Υγρασία: 59%
Βαρόμετρο: 1008 hPa
2021/04/16 22:20 LGKL 162220Z AUTO 34006KT 310V010 //// // ////// 16/08 Q1008 RE//
 
LGIR - Iraklion/Crete-Elev 5m
Distance from station: ΝΝΑ 622km
Ενημερώθηκε: 17/04/2021 01:50
Μερικώς νεφελώδης
Μερικώς νεφελώδης
 Ανεμος από Α
Ανεμος: Α 15 km/h
Θερμοκρασία: 16°C
Σημείο Δρόσου: 14°C
Υγρασία: 88%
Βαρόμετρο: 1009 hPa
Clouds: Μερικώς νεφελώδης
Visibility: 10 km
Cloud details: Μερικώς νεφελώδης 762 m
2021/04/16 22:50 LGIR 162250Z 08008KT 9999 SCT025 16/14 Q1009 NOSIG
LGRP - Rhodes-Elev 5m
Distance from station: ΝΑ 649km
Ενημερώθηκε: 17/04/2021 01:50
Few Clouds
Few Clouds
 Ανεμος από Α
Ανεμος: Α 11 km/h
Θερμοκρασία: 17°C
Σημείο Δρόσου: 16°C
Υγρασία: 94%
Βαρόμετρο: 1014 hPa
Clouds: Few Clouds
Visibility: 9 km
Cloud details: Few Clouds 457 m
2021/04/16 22:50 LGRP 162250Z 10006KT 060V150 9000 FEW015 17/16 Q1014 NOSIG
 
LWOH - Ohrid/FYROM-Elev 761m
Distance from station: ΔΒΔ 188km
Ενημερώθηκε: 16/04/2021 16:30
Μη Ενημερωμένο!
Σχεδόν νεφελώδης
Σχεδόν νεφελώδης
 Ανεμος από ΝΑ
Ανεμος: ΝΑ 7 km/h
Θερμοκρασία: 9°C
Wind Chill: 8°C
Σημείο Δρόσου: 3°C
Υγρασία: 66%
Βαρόμετρο: 1016 hPa
Clouds: Σχεδόν νεφελώδης
Visibility: 10 km
Cloud details: Μερικώς νεφελώδης 1006 m
Σχεδόν νεφελώδης 2743 m
2021/04/16 13:30 LWOH 161330Z 14004KT 9999 SCT033TCU BKN090 09/03 Q1016
LBSF - Sofia/Bulgaria-Elev 595m
Distance from station: Β 227km
Ενημερώθηκε: 17/04/2021 01:30
Αίθριος
Αίθριος
 Ανεμος από ΑΝΑ
Ανεμος: ΑΝΑ 7 km/h
Θερμοκρασία: 6°C
Wind Chill: 4°C
Σημείο Δρόσου: -1°C
Υγρασία: 61%
Βαρόμετρο: 1018 hPa
Συνθήκες: Αίθριος
Visibility: greater than 10 km
2021/04/16 22:30 LBSF 162230Z 12004KT CAVOK 06/M01 Q1018 NOSIG
Σημερινά ρεκόρ Μετεωρολογικού Σταθμού
Δεν έχει σημειωθεί νέο ρεκόρ μέχρι τις 01:52 σήμερα - 17/4/2021